createdAt,value
2017-10-20T00:00:11.087Z,55.95
2017-10-20T00:02:36.857Z,56.08
2017-10-20T00:05:02.632Z,56.45
2017-10-20T00:07:28.424Z,56.26
2017-10-20T00:09:55.358Z,56.09
2017-10-20T00:12:21.131Z,56.19
2017-10-20T00:14:47.112Z,56.27
2017-10-20T00:17:12.866Z,56.15
2017-10-20T00:19:38.628Z,55.82
2017-10-20T00:22:04.380Z,55.87
2017-10-20T00:27:02.488Z,55.92
2017-10-20T00:29:28.291Z,55.94
2017-10-20T00:31:54.056Z,56.20
2017-10-20T00:34:19.857Z,55.79
2017-10-20T00:36:45.611Z,55.90
2017-10-20T00:39:11.483Z,56.06
2017-10-20T00:41:37.226Z,55.98
2017-10-20T00:44:02.998Z,55.78
2017-10-20T00:46:28.791Z,55.63
2017-10-20T00:48:54.551Z,55.66
2017-10-20T00:51:20.301Z,56.10
2017-10-20T00:53:46.057Z,55.83
2017-10-20T00:56:11.853Z,56.04
2017-10-20T00:58:37.656Z,55.80
2017-10-20T01:01:03.409Z,55.91
2017-10-20T01:03:29.281Z,55.77
2017-10-20T01:05:55.215Z,55.94
2017-10-20T01:08:20.953Z,55.91
2017-10-20T01:10:46.704Z,56.17
2017-10-20T01:13:12.463Z,55.86
2017-10-20T01:15:38.228Z,55.84
2017-10-20T01:18:03.981Z,55.73
2017-10-20T01:20:29.783Z,55.76
2017-10-20T01:22:55.537Z,55.74
2017-10-20T01:25:21.314Z,55.82
2017-10-20T01:27:47.060Z,55.82
2017-10-20T01:30:12.847Z,55.79
2017-10-20T01:32:38.633Z,55.90
2017-10-20T01:35:04.393Z,55.92
2017-10-20T01:37:30.776Z,55.75
2017-10-20T01:39:56.544Z,55.73
2017-10-20T01:42:22.305Z,55.63
2017-10-20T01:44:48.096Z,55.65
2017-10-20T01:47:13.847Z,55.63
2017-10-20T01:49:39.595Z,55.76
2017-10-20T01:52:05.348Z,56.02
2017-10-20T01:54:31.146Z,55.70
2017-10-20T01:56:56.893Z,55.77
2017-10-20T01:59:22.641Z,55.52
2017-10-20T02:01:48.404Z,55.53
2017-10-20T02:04:14.144Z,55.36
2017-10-20T02:06:39.905Z,55.80
2017-10-20T02:09:05.652Z,55.84
2017-10-20T02:11:31.448Z,55.31
2017-10-20T02:13:57.192Z,55.63
2017-10-20T02:16:22.949Z,55.57
2017-10-20T02:18:48.703Z,55.67
2017-10-20T02:21:14.451Z,55.79
2017-10-20T02:23:40.185Z,55.71
2017-10-20T02:26:05.975Z,55.80
2017-10-20T02:28:31.732Z,55.62
2017-10-20T02:30:57.481Z,55.76
2017-10-20T02:33:23.268Z,55.46
2017-10-20T02:35:49.080Z,55.30
2017-10-20T02:38:14.867Z,55.28
2017-10-20T02:40:40.651Z,55.33
2017-10-20T02:43:06.402Z,55.30
2017-10-20T02:45:33.165Z,55.06
2017-10-20T02:47:58.924Z,55.06
2017-10-20T02:50:24.720Z,55.20
2017-10-20T02:52:50.476Z,55.04
2017-10-20T02:55:16.224Z,55.17
2017-10-20T02:57:41.972Z,55.19
2017-10-20T03:00:07.761Z,55.10
2017-10-20T03:02:33.541Z,55.11
2017-10-20T03:05:00.316Z,55.48
2017-10-20T03:07:26.125Z,55.40
2017-10-20T03:09:51.874Z,55.23
2017-10-20T03:12:18.424Z,55.35
2017-10-20T03:14:44.167Z,55.09
2017-10-20T03:17:09.951Z,55.16
2017-10-20T03:19:35.696Z,55.00
2017-10-20T03:22:01.561Z,55.17
2017-10-20T03:24:28.161Z,55.15
2017-10-20T03:26:53.897Z,55.04
2017-10-20T03:29:20.629Z,55.07
2017-10-20T03:31:46.384Z,55.00
2017-10-20T03:34:13.055Z,55.06
2017-10-20T03:36:39.797Z,55.17
2017-10-20T03:39:05.565Z,55.21
2017-10-20T03:41:31.944Z,55.27
2017-10-20T03:43:58.629Z,54.89
2017-10-20T03:46:24.421Z,55.28
2017-10-20T03:48:50.164Z,55.14
2017-10-20T03:51:16.891Z,55.09
2017-10-20T03:53:42.648Z,55.01
2017-10-20T03:56:09.288Z,55.16
2017-10-20T03:58:35.061Z,54.70
2017-10-20T04:01:00.855Z,55.61
2017-10-20T04:03:27.536Z,54.71
2017-10-20T04:05:53.289Z,54.67
2017-10-20T04:08:19.050Z,55.07
2017-10-20T04:10:45.584Z,54.94
2017-10-20T04:13:11.376Z,55.03
2017-10-20T04:15:37.129Z,55.13
2017-10-20T04:18:02.901Z,54.91
2017-10-20T04:20:28.679Z,55.17
2017-10-20T04:22:54.429Z,54.99
2017-10-20T04:25:20.180Z,55.29
2017-10-20T04:27:46.039Z,55.69
2017-10-20T04:30:12.612Z,54.34
2017-10-20T04:32:39.357Z,54.56
2017-10-20T04:35:05.104Z,54.84
2017-10-20T04:37:31.848Z,54.37
2017-10-20T04:39:57.587Z,55.16
2017-10-20T04:42:23.346Z,54.79
2017-10-20T04:44:49.096Z,54.75
2017-10-20T04:47:14.845Z,53.87
2017-10-20T04:49:40.685Z,54.29
2017-10-20T04:52:06.433Z,53.88
2017-10-20T04:54:32.304Z,54.27
2017-10-20T04:56:58.040Z,54.25
2017-10-20T04:59:24.616Z,54.19
2017-10-20T05:01:50.406Z,54.18
2017-10-20T05:04:16.296Z,54.22
2017-10-20T05:06:42.908Z,54.45
2017-10-20T05:09:08.683Z,53.83
2017-10-20T05:11:35.312Z,54.44
2017-10-20T05:14:01.079Z,54.71
2017-10-20T05:16:26.879Z,54.23
2017-10-20T05:18:52.625Z,54.30
2017-10-20T05:21:18.387Z,54.50
2017-10-20T05:23:44.173Z,54.38
2017-10-20T05:26:10.795Z,54.02
2017-10-20T05:28:36.579Z,54.28
2017-10-20T05:31:02.335Z,54.21
2017-10-20T05:33:28.096Z,54.02
2017-10-20T05:35:53.909Z,54.30
2017-10-20T05:38:19.665Z,53.94
2017-10-20T05:40:45.428Z,54.06
2017-10-20T05:43:11.177Z,53.78
2017-10-20T05:45:36.948Z,54.12
2017-10-20T05:48:02.688Z,53.99
2017-10-20T05:50:28.419Z,54.38
2017-10-20T05:52:54.162Z,54.24
2017-10-20T05:55:19.913Z,54.02
2017-10-20T05:57:45.647Z,54.12
2017-10-20T06:00:11.403Z,53.95
2017-10-20T06:02:37.166Z,54.20
2017-10-20T06:05:02.911Z,54.09
2017-10-20T06:07:28.689Z,54.01
2017-10-20T06:09:54.425Z,53.97
2017-10-20T06:12:20.184Z,54.05
2017-10-20T06:14:45.921Z,53.91
2017-10-20T06:17:12.717Z,54.17
2017-10-20T06:19:39.039Z,54.43
2017-10-20T06:22:05.707Z,54.39
2017-10-20T06:24:31.465Z,54.19
2017-10-20T06:26:58.092Z,54.74
2017-10-20T06:29:23.848Z,54.24
2017-10-20T06:31:49.807Z,54.22
2017-10-20T06:34:15.751Z,54.24
2017-10-20T06:36:41.553Z,53.96
2017-10-20T06:39:07.327Z,54.46
2017-10-20T06:41:33.131Z,54.41
2017-10-20T06:43:58.880Z,54.19
2017-10-20T06:46:24.624Z,54.33
2017-10-20T06:48:50.364Z,54.21
2017-10-20T06:51:17.108Z,54.63
2017-10-20T06:53:42.879Z,54.54
2017-10-20T06:56:08.643Z,54.66
2017-10-20T06:58:34.390Z,54.59
2017-10-20T07:01:00.160Z,54.85
2017-10-20T07:03:25.925Z,54.55
2017-10-20T07:05:51.689Z,54.63
2017-10-20T07:08:17.468Z,54.36
2017-10-20T07:10:43.226Z,54.06
2017-10-20T07:13:08.996Z,54.82
2017-10-20T07:15:34.761Z,54.31
2017-10-20T07:18:19.385Z,54.76
2017-10-20T07:20:51.302Z,54.71
2017-10-20T07:23:17.196Z,55.04
2017-10-20T07:25:42.957Z,54.51
2017-10-20T07:28:08.729Z,54.63
2017-10-20T07:30:34.493Z,54.61
2017-10-20T07:33:00.359Z,54.66
2017-10-20T07:35:26.188Z,54.49
2017-10-20T07:37:51.931Z,54.49
2017-10-20T07:40:18.967Z,54.78
2017-10-20T07:42:44.724Z,54.66
2017-10-20T07:45:10.634Z,54.65
2017-10-20T07:47:36.516Z,54.64
2017-10-20T07:50:02.280Z,54.40
2017-10-20T07:52:28.961Z,54.69
2017-10-20T07:54:55.528Z,54.56
2017-10-20T07:57:21.275Z,54.62
2017-10-20T07:59:47.033Z,54.46
2017-10-20T08:02:12.906Z,54.71
2017-10-20T08:04:38.688Z,54.63
2017-10-20T08:07:04.672Z,54.46
2017-10-20T08:09:30.554Z,54.51
2017-10-20T08:11:56.311Z,54.59
2017-10-20T08:14:23.064Z,54.51
2017-10-20T08:16:48.804Z,54.54
2017-10-20T08:19:14.599Z,54.75
2017-10-20T08:21:40.371Z,54.49
2017-10-20T08:24:06.140Z,54.82
2017-10-20T08:26:31.900Z,54.63
2017-10-20T08:28:57.707Z,54.49
2017-10-20T08:31:24.490Z,54.74
2017-10-20T08:33:50.240Z,54.72
2017-10-20T08:36:16.203Z,54.74
2017-10-20T08:38:41.963Z,54.64
2017-10-20T08:41:07.835Z,54.57
2017-10-20T08:43:33.581Z,54.36
2017-10-20T08:45:59.345Z,54.66
2017-10-20T08:48:25.100Z,54.85
2017-10-20T08:50:50.879Z,54.62
2017-10-20T08:53:16.627Z,54.82
2017-10-20T08:55:42.377Z,54.80
2017-10-20T08:58:08.132Z,54.80
2017-10-20T09:00:33.893Z,54.72
2017-10-20T09:02:59.680Z,54.57
2017-10-20T09:05:25.424Z,54.98
2017-10-20T09:07:51.204Z,54.57
2017-10-20T09:10:17.839Z,54.75
2017-10-20T09:12:43.622Z,54.54
2017-10-20T09:15:10.951Z,54.83
2017-10-20T09:17:36.700Z,54.78
2017-10-20T09:20:02.488Z,55.24
2017-10-20T09:22:28.243Z,55.19
2017-10-20T09:24:55.147Z,55.11
2017-10-20T09:27:21.064Z,55.54
2017-10-20T09:29:46.978Z,55.21
2017-10-20T09:32:12.732Z,55.16
2017-10-20T09:34:38.667Z,55.35
2017-10-20T09:37:05.376Z,54.95
2017-10-20T09:39:31.121Z,54.97
2017-10-20T09:41:56.868Z,55.07
2017-10-20T09:44:24.451Z,55.13
2017-10-20T09:46:50.377Z,55.11
2017-10-20T09:49:16.129Z,55.96
2017-10-20T09:51:48.882Z,55.38
2017-10-20T09:54:15.572Z,55.33
2017-10-20T09:56:41.372Z,54.69
2017-10-20T09:59:07.128Z,54.50
2017-10-20T10:01:32.893Z,54.41
2017-10-20T10:03:59.605Z,54.79
2017-10-20T10:06:25.369Z,54.78
2017-10-20T10:08:51.115Z,54.67
2017-10-20T10:11:16.884Z,55.18
2017-10-20T10:13:42.668Z,54.83
2017-10-20T10:16:08.639Z,54.62
2017-10-20T10:18:34.404Z,54.41
2017-10-20T10:21:00.196Z,54.59
2017-10-20T10:23:25.944Z,55.06
2017-10-20T10:25:53.850Z,54.84
2017-10-20T10:28:19.608Z,54.94
2017-10-20T10:30:45.481Z,55.77
2017-10-20T10:33:11.230Z,55.35
2017-10-20T10:35:37.019Z,55.50
2017-10-20T10:38:02.775Z,55.30
2017-10-20T10:40:28.544Z,55.40
2017-10-20T10:42:54.295Z,55.85
2017-10-20T10:45:20.044Z,55.39
2017-10-20T10:47:45.799Z,55.48
2017-10-20T10:50:11.551Z,55.30
2017-10-20T10:52:37.302Z,55.16
2017-10-20T10:55:03.856Z,55.34
2017-10-20T10:57:29.600Z,55.57
2017-10-20T10:59:55.395Z,55.22
2017-10-20T11:02:21.143Z,55.85
2017-10-20T11:04:48.040Z,55.46
2017-10-20T11:07:20.064Z,55.71
2017-10-20T11:09:51.948Z,55.89
2017-10-20T11:12:23.840Z,55.91
2017-10-20T11:14:49.576Z,56.01
2017-10-20T11:17:15.376Z,55.46
2017-10-20T11:19:41.926Z,55.56
2017-10-20T11:22:14.754Z,55.50
2017-10-20T11:24:41.512Z,55.79
2017-10-20T11:27:07.263Z,55.42
2017-10-20T11:29:33.051Z,55.55
2017-10-20T11:31:58.815Z,55.89
2017-10-20T11:34:25.360Z,55.63
2017-10-20T11:36:51.105Z,55.56
2017-10-20T11:39:17.180Z,55.81
2017-10-20T11:41:42.924Z,55.94
2017-10-20T11:44:08.688Z,56.35
2017-10-20T11:46:34.483Z,55.89
2017-10-20T11:49:00.231Z,56.06
2017-10-20T11:51:25.971Z,56.00
2017-10-20T11:53:51.719Z,55.70
2017-10-20T11:56:17.924Z,55.90
2017-10-20T11:58:44.622Z,56.22
2017-10-20T12:01:10.376Z,55.52
2017-10-20T12:03:37.058Z,55.70
2017-10-20T12:06:03.809Z,55.95
2017-10-20T12:08:29.552Z,55.92
2017-10-20T12:10:56.274Z,56.15
2017-10-20T12:13:23.017Z,56.37
2017-10-20T12:15:49.756Z,55.94
2017-10-20T12:18:17.093Z,55.71
2017-10-20T12:20:43.777Z,56.23
2017-10-20T12:23:10.448Z,56.43
2017-10-20T12:25:37.137Z,56.52
2017-10-20T12:28:03.826Z,56.73
2017-10-20T12:30:29.570Z,56.14
2017-10-20T12:32:56.312Z,55.95
2017-10-20T12:35:23.079Z,56.47
2017-10-20T12:37:48.875Z,56.02
2017-10-20T12:40:14.661Z,56.23
2017-10-20T12:42:40.413Z,56.12
2017-10-20T12:45:06.164Z,56.22
2017-10-20T12:47:31.913Z,56.05
2017-10-20T12:49:58.616Z,56.10
2017-10-20T12:52:24.360Z,56.61
2017-10-20T12:54:50.156Z,56.17
2017-10-20T12:57:16.729Z,56.59
2017-10-20T12:59:42.481Z,56.75
2017-10-20T13:02:08.232Z,56.56
2017-10-20T13:04:33.985Z,56.61
2017-10-20T13:07:00.696Z,56.64
2017-10-20T13:09:27.394Z,56.22
2017-10-20T13:11:54.180Z,56.51
2017-10-20T13:14:20.985Z,56.85
2017-10-20T13:16:48.226Z,56.63
2017-10-20T13:19:14.024Z,56.74
2017-10-20T13:21:40.739Z,56.57
2017-10-20T13:24:07.359Z,56.30
2017-10-20T13:26:33.100Z,56.05
2017-10-20T13:28:59.809Z,55.55
2017-10-20T13:31:25.561Z,55.24
2017-10-20T13:33:51.309Z,54.84
2017-10-20T13:36:17.817Z,55.34
2017-10-20T13:38:44.217Z,55.52
2017-10-20T13:41:09.988Z,55.62
2017-10-20T13:43:36.590Z,55.69
2017-10-20T13:46:03.196Z,55.72
2017-10-20T13:48:28.949Z,55.71
2017-10-20T13:50:55.673Z,55.83
2017-10-20T13:53:22.380Z,56.10
2017-10-20T13:55:49.108Z,55.97
2017-10-20T13:58:15.858Z,56.19
2017-10-20T14:00:42.505Z,56.06
2017-10-20T14:03:09.225Z,56.34
2017-10-20T14:05:36.031Z,56.11
2017-10-20T14:08:01.796Z,56.04
2017-10-20T14:10:27.577Z,56.15
2017-10-20T14:12:53.330Z,56.31
2017-10-20T14:15:20.110Z,56.14
2017-10-20T14:17:45.885Z,56.51
2017-10-20T14:20:12.470Z,56.38
2017-10-20T14:22:38.256Z,56.52
2017-10-20T14:25:04.871Z,55.99
2017-10-20T14:27:30.620Z,56.45
2017-10-20T14:29:56.409Z,56.17
2017-10-20T14:32:22.162Z,56.82
2017-10-20T14:34:47.900Z,56.27
2017-10-20T14:37:14.505Z,56.52
2017-10-20T14:39:40.293Z,56.61
2017-10-20T14:42:06.894Z,56.89
2017-10-20T14:44:33.536Z,56.76
2017-10-20T14:46:59.284Z,56.75
2017-10-20T14:49:25.034Z,56.88
2017-10-20T14:51:50.782Z,56.81
2017-10-20T14:54:16.535Z,56.66
2017-10-20T14:56:42.277Z,56.73
2017-10-20T14:59:08.047Z,57.00
2017-10-20T15:01:33.827Z,56.86
2017-10-20T15:03:59.596Z,56.54
2017-10-20T15:06:25.353Z,56.64
2017-10-20T15:08:52.691Z,56.83
2017-10-20T15:11:18.454Z,56.65
2017-10-20T15:13:44.208Z,56.75
2017-10-20T15:16:09.947Z,56.75
2017-10-20T15:18:35.736Z,56.97
2017-10-20T15:21:01.489Z,56.75
2017-10-20T15:23:28.025Z,56.93
2017-10-20T15:25:53.824Z,56.92
2017-10-20T15:28:20.565Z,57.01
2017-10-20T15:30:46.335Z,57.02
2017-10-20T15:33:12.174Z,57.23
2017-10-20T15:35:38.129Z,57.17
2017-10-20T15:38:05.039Z,57.13
2017-10-20T15:40:31.072Z,57.45
2017-10-20T15:42:56.823Z,57.16
2017-10-20T15:45:22.605Z,57.31
2017-10-20T15:47:49.221Z,57.24
2017-10-20T15:50:14.996Z,57.28
2017-10-20T15:52:41.716Z,57.08
2017-10-20T15:55:08.356Z,57.09
2017-10-20T15:57:35.116Z,57.50
2017-10-20T16:00:00.867Z,57.09
2017-10-20T16:02:26.632Z,57.09
2017-10-20T16:04:53.388Z,57.48
2017-10-20T16:07:19.199Z,57.41
2017-10-20T16:09:46.064Z,57.34
2017-10-20T16:12:11.856Z,57.96
2017-10-20T16:14:37.753Z,57.60
2017-10-20T16:17:04.389Z,57.66
2017-10-20T16:19:31.083Z,57.64
2017-10-20T16:21:57.638Z,57.88
2017-10-20T16:24:23.404Z,58.29
2017-10-20T16:26:49.210Z,57.67
2017-10-20T16:29:15.720Z,57.62
2017-10-20T16:31:42.260Z,57.49
2017-10-20T16:34:08.018Z,57.74
2017-10-20T16:36:33.761Z,58.05
2017-10-20T16:39:00.356Z,58.40
2017-10-20T16:41:26.143Z,57.76
2017-10-20T16:43:51.967Z,58.00
2017-10-20T16:46:17.736Z,58.02
2017-10-20T16:48:44.499Z,57.54
2017-10-20T16:51:10.259Z,58.13
2017-10-20T16:53:36.052Z,58.22
2017-10-20T16:56:01.789Z,57.68
2017-10-20T16:58:27.552Z,58.09
2017-10-20T17:00:54.159Z,57.91
2017-10-20T17:03:20.857Z,58.14
2017-10-20T17:05:47.628Z,57.54
2017-10-20T17:08:14.084Z,57.68
2017-10-20T17:10:39.880Z,57.74
2017-10-20T17:13:05.645Z,58.93
2017-10-20T17:15:31.396Z,58.21
2017-10-20T17:17:57.144Z,57.91
2017-10-20T17:20:22.896Z,57.76
2017-10-20T17:22:48.649Z,57.33
2017-10-20T17:25:15.255Z,57.26
2017-10-20T17:27:41.166Z,56.98
2017-10-20T17:30:07.830Z,57.12
2017-10-20T17:32:33.612Z,57.06
2017-10-20T17:34:59.508Z,56.96
2017-10-20T17:37:26.184Z,57.34
2017-10-20T17:39:52.957Z,57.52
2017-10-20T17:42:18.716Z,57.33
2017-10-20T17:44:45.447Z,57.26
2017-10-20T17:47:11.203Z,57.17
2017-10-20T17:49:37.924Z,57.11
2017-10-20T17:52:03.667Z,57.26
2017-10-20T17:54:30.340Z,57.43
2017-10-20T17:56:56.080Z,57.44
2017-10-20T17:59:21.832Z,57.58
2017-10-20T18:01:48.508Z,57.57
2017-10-20T18:04:14.953Z,57.59
2017-10-20T18:06:41.618Z,58.20
2017-10-20T18:09:08.816Z,57.45
2017-10-20T18:11:34.577Z,57.85
2017-10-20T18:14:00.392Z,57.96
2017-10-20T18:16:27.973Z,57.86
2017-10-20T18:18:53.743Z,57.75
2017-10-20T18:21:19.504Z,57.44
2017-10-20T18:23:45.267Z,57.25
2017-10-20T18:26:11.027Z,57.34
2017-10-20T18:28:37.809Z,57.50
2017-10-20T18:31:03.589Z,57.55
2017-10-20T18:33:29.353Z,57.74
2017-10-20T18:35:55.109Z,57.88
2017-10-20T18:38:20.880Z,58.10
2017-10-20T18:40:46.642Z,57.94
2017-10-20T18:43:12.391Z,57.65
2017-10-20T18:45:38.155Z,57.63
2017-10-20T18:48:03.913Z,58.07
2017-10-20T18:50:29.701Z,57.85
2017-10-20T18:52:55.458Z,57.99
2017-10-20T18:55:21.222Z,57.95
2017-10-20T18:57:46.977Z,57.97
2017-10-20T19:00:12.738Z,57.92
2017-10-20T19:02:38.496Z,57.98
2017-10-20T19:05:04.247Z,57.99
2017-10-20T19:07:30.007Z,57.73
2017-10-20T19:09:56.621Z,57.69
2017-10-20T19:12:23.378Z,58.08
2017-10-20T19:14:49.176Z,57.61
2017-10-20T19:17:14.976Z,57.92
2017-10-20T19:19:41.608Z,57.81
2017-10-20T19:22:08.375Z,58.44
2017-10-20T19:24:34.129Z,58.41
2017-10-20T19:26:59.902Z,58.40
2017-10-20T19:29:26.800Z,58.48
2017-10-20T19:31:52.581Z,58.42
2017-10-20T19:34:18.899Z,58.51
2017-10-20T19:36:44.668Z,58.95
2017-10-20T19:39:10.551Z,58.68
2017-10-20T19:41:36.420Z,58.54
2017-10-20T19:44:02.328Z,58.36
2017-10-20T19:46:29.104Z,58.06
2017-10-20T19:49:04.154Z,58.51
2017-10-20T19:51:34.376Z,58.45
2017-10-20T19:54:01.285Z,58.98
2017-10-20T19:56:27.043Z,58.53
2017-10-20T19:58:52.812Z,58.48
2017-10-20T20:01:19.420Z,58.60
2017-10-20T20:03:45.187Z,58.84
2017-10-20T20:06:10.984Z,58.57
2017-10-20T20:08:36.736Z,58.81
2017-10-20T20:11:02.791Z,58.62
2017-10-20T20:13:32.179Z,58.25
2017-10-20T20:15:58.122Z,58.79
2017-10-20T20:18:24.115Z,58.77
2017-10-20T20:20:49.911Z,58.21
2017-10-20T20:23:15.728Z,57.91
2017-10-20T20:25:41.683Z,58.21
2017-10-20T20:28:08.758Z,58.19
2017-10-20T20:30:38.985Z,58.20
2017-10-20T20:33:07.540Z,58.29
2017-10-20T20:35:33.316Z,58.43
2017-10-20T20:37:59.081Z,58.58
2017-10-20T20:40:25.876Z,58.62
2017-10-20T20:42:52.496Z,58.50
2017-10-20T20:45:18.547Z,58.39
2017-10-20T20:47:44.528Z,58.35
2017-10-20T20:50:10.307Z,58.31
2017-10-20T20:52:36.065Z,58.40
2017-10-20T20:55:01.808Z,58.74
2017-10-20T20:57:27.773Z,58.37
2017-10-20T20:59:54.815Z,58.43
2017-10-20T21:02:20.861Z,58.40
2017-10-20T21:04:47.930Z,58.52
2017-10-20T21:07:15.042Z,58.35
2017-10-20T21:09:40.816Z,58.01
2017-10-20T21:12:06.715Z,58.57
2017-10-20T21:14:33.973Z,58.38
2017-10-20T21:17:00.297Z,57.37
2017-10-20T21:19:26.541Z,57.47
2017-10-20T21:21:52.863Z,56.82
2017-10-20T21:24:19.237Z,57.27
2017-10-20T21:26:45.468Z,56.70
2017-10-20T21:29:11.703Z,56.51
2017-10-20T21:31:37.504Z,56.23
2017-10-20T21:34:03.280Z,56.09
2017-10-20T21:36:29.041Z,56.25
2017-10-20T21:38:54.807Z,57.04
2017-10-20T21:41:20.568Z,56.10
2017-10-20T21:43:47.324Z,55.78
2017-10-20T21:46:13.085Z,55.64
2017-10-20T21:48:43.433Z,55.62
2017-10-20T21:51:13.874Z,55.86
2017-10-20T21:53:45.403Z,55.70
2017-10-20T21:56:16.007Z,55.94
2017-10-20T21:58:42.149Z,56.12
2017-10-20T22:01:15.965Z,55.71
2017-10-20T22:03:42.354Z,55.46
2017-10-20T22:06:08.590Z,55.71
2017-10-20T22:08:35.642Z,55.75
2017-10-20T22:11:02.590Z,55.75
2017-10-20T22:13:28.858Z,56.10
2017-10-20T22:15:55.169Z,56.39
2017-10-20T22:18:21.411Z,56.11
2017-10-20T22:20:47.901Z,56.02
2017-10-20T22:23:14.373Z,55.80
2017-10-20T22:25:40.551Z,55.97
2017-10-20T22:28:08.070Z,55.96
2017-10-20T22:30:34.213Z,55.83
2017-10-20T22:33:00.434Z,55.48
2017-10-20T22:35:26.684Z,55.52
2017-10-20T22:37:52.897Z,55.30
2017-10-20T22:40:19.147Z,55.55
2017-10-20T22:42:45.151Z,55.34
2017-10-20T22:45:11.420Z,55.74
2017-10-20T22:47:37.646Z,55.88
2017-10-20T22:50:03.858Z,55.76
2017-10-20T22:52:30.108Z,55.62
2017-10-20T22:54:56.336Z,55.38
2017-10-20T22:57:22.539Z,55.39
2017-10-20T22:59:48.292Z,55.50
2017-10-20T23:02:15.345Z,55.48
2017-10-20T23:04:41.131Z,55.65
2017-10-20T23:07:06.876Z,55.64
2017-10-20T23:09:33.599Z,55.63
2017-10-20T23:11:59.346Z,55.45
2017-10-20T23:14:25.095Z,55.33
2017-10-20T23:16:51.816Z,55.35
2017-10-20T23:19:17.765Z,55.05
2017-10-20T23:21:43.561Z,54.85
2017-10-20T23:24:10.386Z,54.76
2017-10-20T23:26:36.144Z,54.99
2017-10-20T23:29:02.871Z,55.18
2017-10-20T23:31:28.712Z,55.08
2017-10-20T23:33:54.475Z,55.00
2017-10-20T23:36:20.258Z,54.89
2017-10-20T23:38:46.017Z,55.34
2017-10-20T23:41:11.815Z,55.18
2017-10-20T23:43:37.595Z,55.16
2017-10-20T23:46:03.423Z,54.91
2017-10-20T23:48:29.171Z,55.08
2017-10-20T23:50:55.078Z,55.03
2017-10-20T23:53:21.853Z,54.84
2017-10-20T23:55:47.608Z,54.94
2017-10-20T23:58:13.453Z,54.61
